createdAt,value
2023-03-30T00:00:12.828Z,510.00
2023-03-30T00:01:12.747Z,514.00
2023-03-30T00:02:12.706Z,513.00
2023-03-30T00:03:12.786Z,519.00
2023-03-30T00:04:12.821Z,511.00
2023-03-30T00:06:21.410Z,500.00
2023-03-30T00:07:21.407Z,500.00
2023-03-30T00:08:21.415Z,500.00
2023-03-30T00:09:21.437Z,500.00
2023-03-30T00:10:21.527Z,500.00
2023-03-30T00:11:21.579Z,505.00
2023-03-30T00:12:21.589Z,514.00
2023-03-30T00:13:21.634Z,503.00
2023-03-30T00:14:21.688Z,508.00
2023-03-30T00:15:21.758Z,522.00
2023-03-30T00:16:21.898Z,519.00
2023-03-30T00:17:21.832Z,503.00
2023-03-30T00:18:21.842Z,515.00
2023-03-30T00:19:21.899Z,502.00
2023-03-30T00:20:22.037Z,522.00
2023-03-30T00:21:21.970Z,507.00
2023-03-30T00:22:22.023Z,517.00
2023-03-30T00:23:22.058Z,511.00
2023-03-30T00:24:22.106Z,521.00
2023-03-30T00:25:22.141Z,506.00
2023-03-30T00:26:22.195Z,509.00
2023-03-30T00:27:22.233Z,506.00
2023-03-30T00:28:22.291Z,515.00
2023-03-30T00:29:22.345Z,505.00
2023-03-30T00:30:22.380Z,517.00
2023-03-30T00:31:22.484Z,500.00
2023-03-30T00:32:22.578Z,518.00
2023-03-30T00:33:33.631Z,511.00
2023-03-30T00:34:23.536Z,512.00
2023-03-30T00:35:22.544Z,512.00
2023-03-30T00:36:22.633Z,512.00
2023-03-30T00:37:22.529Z,518.00
2023-03-30T00:38:22.546Z,515.00
2023-03-30T00:39:22.532Z,512.00
2023-03-30T00:40:22.545Z,511.00
2023-03-30T00:41:22.542Z,515.00
2023-03-30T00:42:22.535Z,515.00
2023-03-30T00:43:22.526Z,511.00
2023-03-30T00:44:22.532Z,522.00
2023-03-30T00:45:22.531Z,517.00
2023-03-30T00:46:22.576Z,512.00
2023-03-30T00:47:22.535Z,512.00
2023-03-30T00:48:22.534Z,504.00
2023-03-30T00:49:22.524Z,509.00
2023-03-30T00:50:22.538Z,511.00
2023-03-30T00:51:22.519Z,507.00
2023-03-30T00:52:22.543Z,511.00
2023-03-30T00:53:22.533Z,522.00
2023-03-30T00:54:22.551Z,510.00
2023-03-30T00:55:22.550Z,504.00
2023-03-30T00:56:22.542Z,509.00
2023-03-30T00:57:22.626Z,510.00
2023-03-30T00:58:22.558Z,512.00
2023-03-30T00:59:22.555Z,512.00
2023-03-30T01:00:22.568Z,513.00
2023-03-30T01:01:22.543Z,518.00
2023-03-30T01:02:22.566Z,502.00
2023-03-30T01:03:22.694Z,513.00
2023-03-30T01:04:22.552Z,513.00
2023-03-30T01:05:22.544Z,514.00
2023-03-30T01:06:22.562Z,512.00
2023-03-30T01:07:22.556Z,514.00
2023-03-30T01:08:22.558Z,513.00
2023-03-30T01:09:22.611Z,514.00
2023-03-30T01:10:22.569Z,513.00
2023-03-30T01:11:22.607Z,513.00
2023-03-30T01:12:22.587Z,514.00
2023-03-30T01:13:22.576Z,522.00
2023-03-30T01:14:22.580Z,526.00
2023-03-30T01:15:22.561Z,523.00
2023-03-30T01:16:22.618Z,510.00
2023-03-30T01:17:22.581Z,511.00
2023-03-30T01:18:22.572Z,513.00
2023-03-30T01:19:22.582Z,519.00
2023-03-30T01:20:22.588Z,518.00
2023-03-30T01:21:22.589Z,518.00
2023-03-30T01:22:22.595Z,508.00
2023-03-30T01:23:22.635Z,516.00
2023-03-30T01:24:22.667Z,519.00
2023-03-30T01:25:22.733Z,507.00
2023-03-30T01:26:22.781Z,516.00
2023-03-30T01:27:22.841Z,512.00
2023-03-30T01:28:22.915Z,508.00
2023-03-30T01:29:22.991Z,515.00
2023-03-30T01:30:23.057Z,517.00
2023-03-30T01:31:23.154Z,516.00
2023-03-30T01:32:23.190Z,517.00
2023-03-30T01:33:23.204Z,517.00
2023-03-30T01:34:23.257Z,514.00
2023-03-30T01:35:23.456Z,504.00
2023-03-30T01:36:23.424Z,513.00
2023-03-30T01:37:23.424Z,510.00
2023-03-30T01:38:23.495Z,514.00
2023-03-30T01:39:23.532Z,523.00
2023-03-30T01:40:23.541Z,519.00
2023-03-30T01:41:23.552Z,512.00
2023-03-30T01:42:23.598Z,512.00
2023-03-30T01:43:23.601Z,506.00
2023-03-30T01:44:23.618Z,506.00
2023-03-30T01:45:23.651Z,523.00
2023-03-30T01:46:23.631Z,512.00
2023-03-30T01:47:23.778Z,504.00
2023-03-30T01:48:23.651Z,523.00
2023-03-30T01:49:23.684Z,519.00
2023-03-30T01:50:23.677Z,515.00
2023-03-30T01:51:23.703Z,514.00
2023-03-30T01:52:23.736Z,522.00
2023-03-30T01:53:23.751Z,505.00
2023-03-30T01:54:23.775Z,517.00
2023-03-30T01:55:23.782Z,520.00
2023-03-30T01:56:23.797Z,504.00
2023-03-30T01:57:23.911Z,508.00
2023-03-30T01:58:23.811Z,512.00
2023-03-30T01:59:23.868Z,513.00
2023-03-30T02:00:23.906Z,522.00
2023-03-30T02:01:23.990Z,509.00
2023-03-30T02:02:24.018Z,512.00
2023-03-30T02:03:24.039Z,519.00
2023-03-30T02:04:24.063Z,509.00
2023-03-30T02:05:24.131Z,522.00
2023-03-30T02:06:24.114Z,511.00
2023-03-30T02:07:24.166Z,513.00
2023-03-30T02:08:24.212Z,522.00
2023-03-30T02:09:24.234Z,509.00
2023-03-30T02:10:24.269Z,515.00
2023-03-30T02:11:24.288Z,513.00
2023-03-30T02:12:24.321Z,513.00
2023-03-30T02:13:24.355Z,507.00
2023-03-30T02:14:24.399Z,519.00
2023-03-30T02:15:24.423Z,514.00
2023-03-30T02:16:24.533Z,520.00
2023-03-30T02:17:24.560Z,516.00
2023-03-30T02:18:24.455Z,511.00
2023-03-30T02:19:24.465Z,503.00
2023-03-30T02:20:24.500Z,524.00
2023-03-30T02:21:24.504Z,511.00
2023-03-30T02:22:24.543Z,527.00
2023-03-30T02:23:24.561Z,518.00
2023-03-30T02:24:24.587Z,519.00
2023-03-30T02:25:24.672Z,520.00
2023-03-30T02:26:24.665Z,525.00
2023-03-30T02:27:24.679Z,515.00
2023-03-30T02:28:24.696Z,515.00
2023-03-30T02:29:24.707Z,509.00
2023-03-30T02:30:24.710Z,507.00
2023-03-30T02:31:24.748Z,517.00
2023-03-30T02:32:24.758Z,530.00
2023-03-30T02:33:24.766Z,523.00
2023-03-30T02:34:24.773Z,523.00
2023-03-30T02:35:24.806Z,517.00
2023-03-30T02:36:24.803Z,516.00
2023-03-30T02:37:24.822Z,519.00
2023-03-30T02:38:24.847Z,512.00
2023-03-30T02:39:24.843Z,512.00
2023-03-30T02:40:24.847Z,521.00
2023-03-30T02:41:24.852Z,506.00
2023-03-30T02:42:24.853Z,504.00
2023-03-30T02:43:24.858Z,511.00
2023-03-30T02:44:24.890Z,515.00
2023-03-30T02:45:24.937Z,500.00
2023-03-30T02:46:24.998Z,500.00
2023-03-30T02:47:24.959Z,482.00
2023-03-30T02:48:24.914Z,461.00
2023-03-30T02:49:24.914Z,428.00
2023-03-30T02:50:24.917Z,429.00
2023-03-30T02:51:24.907Z,479.00
2023-03-30T02:52:24.925Z,506.00
2023-03-30T02:53:24.905Z,500.00
2023-03-30T02:54:24.910Z,503.00
2023-03-30T02:55:24.924Z,501.00
2023-03-30T02:56:24.903Z,509.00
2023-03-30T02:57:24.949Z,511.00
2023-03-30T02:58:24.895Z,502.00
2023-03-30T02:59:24.893Z,506.00
2023-03-30T03:00:24.900Z,500.00
2023-03-30T03:01:24.982Z,505.00
2023-03-30T03:02:24.981Z,504.00
2023-03-30T03:03:24.995Z,501.00
2023-03-30T03:04:24.890Z,502.00
2023-03-30T03:05:24.920Z,503.00
2023-03-30T03:06:24.895Z,500.00
2023-03-30T03:07:24.909Z,500.00
2023-03-30T03:08:24.914Z,500.00
2023-03-30T03:09:24.911Z,490.00
2023-03-30T03:10:24.918Z,485.00
2023-03-30T03:11:24.939Z,471.00
2023-03-30T03:12:24.930Z,464.00
2023-03-30T03:13:24.952Z,500.00
2023-03-30T03:14:24.950Z,502.00
2023-03-30T03:15:24.956Z,501.00
2023-03-30T03:16:25.004Z,500.00
2023-03-30T03:17:25.005Z,506.00
2023-03-30T03:18:24.978Z,500.00
2023-03-30T03:19:24.977Z,501.00
2023-03-30T03:20:24.998Z,503.00
2023-03-30T03:21:25.069Z,505.00
2023-03-30T03:22:25.132Z,506.00
2023-03-30T03:23:25.215Z,500.00
2023-03-30T03:24:25.265Z,503.00
2023-03-30T03:25:25.358Z,504.00
2023-03-30T03:26:25.417Z,504.00
2023-03-30T03:27:25.486Z,503.00
2023-03-30T03:28:25.570Z,502.00
2023-03-30T03:29:25.635Z,502.00
2023-03-30T03:30:25.727Z,503.00
2023-03-30T03:31:25.819Z,502.00
2023-03-30T03:32:25.904Z,505.00
2023-03-30T03:33:25.948Z,503.00
2023-03-30T03:34:26.049Z,500.00
2023-03-30T03:35:26.111Z,503.00
2023-03-30T03:36:26.157Z,500.00
2023-03-30T03:37:26.238Z,500.00
2023-03-30T03:38:26.334Z,503.00
2023-03-30T03:39:26.397Z,500.00
2023-03-30T03:40:26.506Z,506.00
2023-03-30T03:41:26.556Z,500.00
2023-03-30T03:42:26.617Z,502.00
2023-03-30T03:43:26.717Z,504.00
2023-03-30T03:44:26.772Z,504.00
2023-03-30T03:45:26.889Z,506.00
2023-03-30T03:46:26.971Z,511.00
2023-03-30T03:47:27.070Z,509.00
2023-03-30T03:48:27.026Z,510.00
2023-03-30T03:49:27.048Z,510.00
2023-03-30T03:50:27.040Z,512.00
2023-03-30T03:51:27.073Z,516.00
2023-03-30T03:52:27.073Z,517.00
2023-03-30T03:53:27.092Z,513.00
2023-03-30T03:54:27.088Z,516.00
2023-03-30T03:55:27.097Z,512.00
2023-03-30T03:56:27.113Z,515.00
2023-03-30T03:57:27.174Z,512.00
2023-03-30T03:58:27.127Z,509.00
2023-03-30T03:59:27.176Z,515.00
2023-03-30T04:00:27.273Z,517.00
2023-03-30T04:01:27.292Z,516.00
2023-03-30T04:02:27.342Z,521.00
2023-03-30T04:03:27.355Z,519.00
2023-03-30T04:04:27.434Z,516.00
2023-03-30T04:05:27.447Z,525.00
2023-03-30T04:06:27.492Z,529.00
2023-03-30T04:07:27.514Z,533.00
2023-03-30T04:08:27.588Z,532.00
2023-03-30T04:09:27.630Z,535.00
2023-03-30T04:10:27.675Z,543.00
2023-03-30T04:11:27.726Z,535.00
2023-03-30T04:12:27.756Z,543.00
2023-03-30T04:13:27.804Z,539.00
2023-03-30T04:14:27.873Z,539.00
2023-03-30T04:15:27.877Z,541.00
2023-03-30T04:16:27.961Z,544.00
2023-03-30T04:17:27.994Z,545.00
2023-03-30T04:18:28.014Z,551.00
2023-03-30T04:19:28.084Z,566.00
2023-03-30T04:20:28.116Z,570.00
2023-03-30T04:21:28.152Z,572.00
2023-03-30T04:22:28.188Z,572.00
2023-03-30T04:23:28.264Z,575.00
2023-03-30T04:24:28.315Z,578.00
2023-03-30T04:25:28.421Z,565.00
2023-03-30T04:26:28.425Z,565.00
2023-03-30T04:27:28.488Z,555.00
2023-03-30T04:28:28.513Z,556.00
2023-03-30T04:29:28.527Z,555.00
2023-03-30T04:30:28.548Z,556.00
2023-03-30T04:31:28.596Z,551.00
2023-03-30T04:32:28.599Z,543.00
2023-03-30T04:33:28.593Z,538.00
2023-03-30T04:34:28.598Z,531.00
2023-03-30T04:35:28.621Z,524.00
2023-03-30T04:36:28.648Z,524.00
2023-03-30T04:37:28.662Z,516.00
2023-03-30T04:38:28.670Z,526.00
2023-03-30T04:39:28.697Z,529.00
2023-03-30T04:40:28.741Z,529.00
2023-03-30T04:41:28.808Z,530.00
2023-03-30T04:42:28.822Z,530.00
2023-03-30T04:43:28.830Z,530.00
2023-03-30T04:44:28.845Z,532.00
2023-03-30T04:45:28.887Z,534.00
2023-03-30T04:46:28.863Z,539.00
2023-03-30T04:47:28.918Z,539.00
2023-03-30T04:48:28.885Z,542.00
2023-03-30T04:49:28.901Z,541.00
2023-03-30T04:50:28.904Z,543.00
2023-03-30T04:51:28.931Z,546.00
2023-03-30T04:52:28.929Z,534.00
2023-03-30T04:53:28.950Z,528.00
2023-03-30T04:54:30.758Z,538.00
2023-03-30T04:55:28.968Z,545.00
2023-03-30T04:56:28.993Z,537.00
2023-03-30T04:57:29.088Z,535.00
2023-03-30T04:58:29.025Z,538.00
2023-03-30T04:59:29.012Z,538.00
2023-03-30T05:00:29.026Z,538.00
2023-03-30T05:01:29.114Z,535.00
2023-03-30T05:02:29.121Z,536.00
2023-03-30T05:03:29.150Z,535.00
2023-03-30T05:04:29.085Z,536.00
2023-03-30T05:05:29.097Z,537.00
2023-03-30T05:06:29.113Z,537.00
2023-03-30T05:07:29.122Z,540.00
2023-03-30T05:08:29.114Z,549.00
2023-03-30T05:09:29.139Z,544.00
2023-03-30T05:10:29.136Z,546.00
2023-03-30T05:11:29.152Z,549.00
2023-03-30T05:12:29.181Z,549.00
2023-03-30T05:13:29.223Z,552.00
2023-03-30T05:14:29.196Z,553.00
2023-03-30T05:15:29.228Z,557.00
2023-03-30T05:16:29.248Z,569.00
2023-03-30T05:17:29.260Z,587.00
2023-03-30T05:18:29.275Z,598.00
2023-03-30T05:19:29.262Z,612.00
2023-03-30T05:20:29.292Z,616.00
2023-03-30T05:21:29.312Z,618.00
2023-03-30T05:22:29.320Z,630.00
2023-03-30T05:23:29.325Z,644.00
2023-03-30T05:24:29.382Z,648.00
2023-03-30T05:25:29.357Z,657.00
2023-03-30T05:26:29.395Z,660.00
2023-03-30T05:27:29.398Z,674.00
2023-03-30T05:28:31.830Z,698.00
2023-03-30T05:29:29.434Z,707.00
2023-03-30T05:30:29.416Z,711.00
2023-03-30T05:31:29.479Z,737.00
2023-03-30T05:32:29.499Z,740.00
2023-03-30T05:33:29.459Z,775.00
2023-03-30T05:34:29.480Z,810.00
2023-03-30T05:35:29.469Z,848.00
2023-03-30T05:36:29.468Z,866.00
2023-03-30T05:37:29.483Z,898.00
2023-03-30T05:38:29.522Z,896.00
2023-03-30T05:39:29.505Z,928.00
2023-03-30T05:40:29.521Z,969.00
2023-03-30T05:41:29.499Z,972.00
2023-03-30T05:42:29.531Z,979.00
2023-03-30T05:43:29.556Z,997.00
2023-03-30T05:44:29.565Z,1038.00
2023-03-30T05:45:29.532Z,1094.00
2023-03-30T05:46:29.594Z,1144.00
2023-03-30T05:47:29.583Z,1157.00
2023-03-30T05:48:29.567Z,1160.00
2023-03-30T05:49:29.540Z,1170.00
2023-03-30T05:50:29.557Z,1185.00
2023-03-30T05:51:29.559Z,1222.00
2023-03-30T05:52:29.579Z,1283.00
2023-03-30T05:53:29.590Z,1318.00
2023-03-30T05:54:29.567Z,1315.00
2023-03-30T05:55:29.591Z,1324.00
2023-03-30T05:56:29.578Z,1327.00
2023-03-30T05:57:29.691Z,1328.00
2023-03-30T05:58:29.594Z,1331.00
2023-03-30T05:59:29.603Z,1338.00
2023-03-30T06:00:29.701Z,1353.00
2023-03-30T06:01:29.615Z,1363.00
2023-03-30T06:02:29.675Z,1369.00
2023-03-30T06:03:29.756Z,1360.00
2023-03-30T06:04:29.650Z,1356.00
2023-03-30T06:05:29.621Z,1347.00
2023-03-30T06:06:29.614Z,1349.00
2023-03-30T06:07:29.667Z,1332.00
2023-03-30T06:08:29.624Z,1303.00
2023-03-30T06:09:29.627Z,1303.00
2023-03-30T06:10:29.644Z,1303.00
2023-03-30T06:11:29.636Z,1303.00
2023-03-30T06:12:29.645Z,1283.00
2023-03-30T06:13:29.626Z,1289.00
2023-03-30T06:14:29.629Z,1274.00
2023-03-30T06:15:29.663Z,1259.00
2023-03-30T06:16:29.692Z,1254.00
2023-03-30T06:17:29.672Z,1254.00
2023-03-30T06:18:29.684Z,1254.00
2023-03-30T06:19:29.660Z,1225.00
2023-03-30T06:20:29.663Z,1214.00
2023-03-30T06:21:29.659Z,1221.00
2023-03-30T06:22:31.888Z,1202.00
2023-03-30T06:23:29.693Z,1011.00
2023-03-30T06:24:29.722Z,963.00
2023-03-30T06:25:29.742Z,1027.00
2023-03-30T06:26:29.818Z,1068.00
2023-03-30T06:27:29.845Z,1073.00
2023-03-30T06:28:29.890Z,1091.00
2023-03-30T06:29:29.908Z,1119.00
2023-03-30T06:30:29.953Z,1071.00
2023-03-30T06:31:30.021Z,1054.00
2023-03-30T06:32:30.232Z,885.00
2023-03-30T06:33:30.072Z,898.00
2023-03-30T06:34:30.142Z,922.00
2023-03-30T06:35:30.340Z,869.00
2023-03-30T06:36:44.352Z,830.00
2023-03-30T06:37:31.255Z,831.00
2023-03-30T06:38:30.257Z,835.00
2023-03-30T06:39:30.284Z,840.00
2023-03-30T06:40:30.272Z,803.00
2023-03-30T06:41:30.321Z,566.00
2023-03-30T06:42:30.285Z,578.00
2023-03-30T06:43:30.293Z,505.00
2023-03-30T06:44:30.296Z,544.00
2023-03-30T06:45:30.349Z,588.00
2023-03-30T06:46:30.329Z,578.00
2023-03-30T06:47:30.350Z,586.00
2023-03-30T06:48:30.321Z,604.00
2023-03-30T06:49:30.330Z,588.00
2023-03-30T06:50:30.398Z,601.00
2023-03-30T06:51:30.385Z,635.00
2023-03-30T06:52:30.364Z,646.00
2023-03-30T06:53:30.385Z,664.00
2023-03-30T06:54:30.376Z,700.00
2023-03-30T06:55:30.399Z,788.00
2023-03-30T06:56:30.441Z,834.00
2023-03-30T06:57:30.596Z,831.00
2023-03-30T06:58:30.735Z,828.00
2023-03-30T06:59:32.525Z,866.00
2023-03-30T07:00:30.658Z,905.00
2023-03-30T07:01:30.686Z,936.00
2023-03-30T07:02:30.720Z,975.00
2023-03-30T07:03:30.683Z,960.00
2023-03-30T07:04:30.748Z,938.00
2023-03-30T07:05:30.706Z,931.00
2023-03-30T07:06:30.711Z,898.00
2023-03-30T07:07:30.712Z,907.00
2023-03-30T07:08:30.719Z,885.00
2023-03-30T07:09:30.803Z,914.00
2023-03-30T07:10:30.737Z,938.00
2023-03-30T07:11:30.752Z,957.00
2023-03-30T07:12:30.750Z,987.00
2023-03-30T07:13:30.767Z,1028.00
2023-03-30T07:14:30.774Z,1039.00
2023-03-30T07:15:30.790Z,1039.00
2023-03-30T07:16:30.818Z,1040.00
2023-03-30T07:17:30.850Z,1046.00
2023-03-30T07:18:30.852Z,1053.00
2023-03-30T07:19:30.833Z,1041.00
2023-03-30T07:20:30.811Z,1051.00
2023-03-30T07:21:30.819Z,1042.00
2023-03-30T07:22:30.853Z,1048.00
2023-03-30T07:23:30.861Z,1055.00
2023-03-30T07:24:30.862Z,1055.00
2023-03-30T07:25:30.880Z,1066.00
2023-03-30T07:26:30.878Z,953.00
2023-03-30T07:27:30.891Z,838.00
2023-03-30T07:28:30.902Z,811.00
2023-03-30T07:29:30.896Z,894.00
2023-03-30T07:30:30.927Z,928.00
2023-03-30T07:31:30.945Z,951.00
2023-03-30T07:32:31.035Z,964.00
2023-03-30T07:33:31.075Z,990.00
2023-03-30T07:34:30.939Z,1119.00
2023-03-30T07:35:31.025Z,1434.00
2023-03-30T07:36:31.059Z,1443.00
2023-03-30T07:37:31.112Z,1426.00
2023-03-30T07:38:31.160Z,1410.00
2023-03-30T07:39:33.875Z,1389.00
2023-03-30T07:40:31.339Z,1287.00
2023-03-30T07:41:31.190Z,1310.00
2023-03-30T07:42:31.311Z,1277.00
2023-03-30T07:43:31.243Z,1302.00
2023-03-30T07:44:31.241Z,1262.00
2023-03-30T07:45:31.256Z,1149.00
2023-03-30T07:46:31.266Z,1049.00
2023-03-30T07:47:31.225Z,657.00
2023-03-30T07:48:31.253Z,661.00
2023-03-30T07:49:31.206Z,636.00
2023-03-30T07:50:31.238Z,604.00
2023-03-30T07:51:31.223Z,598.00
2023-03-30T07:52:31.817Z,527.00
2023-03-30T07:53:31.313Z,471.00
2023-03-30T07:54:31.264Z,517.00
2023-03-30T07:55:31.278Z,587.00
2023-03-30T07:56:31.274Z,531.00
2023-03-30T07:57:31.357Z,466.00
2023-03-30T07:58:31.286Z,400.00
2023-03-30T07:59:31.308Z,428.00
2023-03-30T08:00:31.319Z,459.00
2023-03-30T08:01:31.312Z,556.00
2023-03-30T08:02:31.377Z,512.00
2023-03-30T08:03:31.440Z,515.00
2023-03-30T08:04:31.504Z,513.00
2023-03-30T08:05:31.371Z,551.00
2023-03-30T08:06:31.392Z,903.00
2023-03-30T08:07:31.402Z,1096.00
2023-03-30T08:08:31.395Z,1136.00
2023-03-30T08:09:31.391Z,1135.00
2023-03-30T08:10:31.431Z,1182.00
2023-03-30T08:11:31.409Z,1225.00
2023-03-30T08:12:31.438Z,1256.00
2023-03-30T08:13:31.486Z,1290.00
2023-03-30T08:14:31.491Z,1307.00
2023-03-30T08:15:31.493Z,1300.00
2023-03-30T08:16:31.544Z,1358.00
2023-03-30T08:17:31.527Z,1400.00
2023-03-30T08:18:31.511Z,1387.00
2023-03-30T08:19:31.564Z,1424.00
2023-03-30T08:20:31.647Z,1468.00
2023-03-30T08:21:31.857Z,1435.00
2023-03-30T08:22:31.756Z,1492.00
2023-03-30T08:23:31.831Z,1462.00
2023-03-30T08:24:31.929Z,1464.00
2023-03-30T08:25:31.943Z,1515.00
2023-03-30T08:26:32.072Z,1479.00
2023-03-30T08:27:32.084Z,1515.00
2023-03-30T08:28:32.574Z,1506.00
2023-03-30T08:29:32.204Z,1552.00
2023-03-30T08:30:32.276Z,1590.00
2023-03-30T08:31:32.318Z,1609.00
2023-03-30T08:32:32.524Z,1601.00
2023-03-30T08:33:32.394Z,1631.00
2023-03-30T08:34:33.307Z,1457.00
2023-03-30T08:35:32.534Z,1090.00
2023-03-30T08:36:32.533Z,652.00
2023-03-30T08:37:32.539Z,654.00
2023-03-30T08:38:32.545Z,686.00
2023-03-30T08:39:32.515Z,782.00
2023-03-30T08:40:32.554Z,901.00
2023-03-30T08:41:32.540Z,1125.00
2023-03-30T08:42:32.543Z,1218.00
2023-03-30T08:43:32.550Z,1219.00
2023-03-30T08:44:32.514Z,1228.00
2023-03-30T08:45:32.535Z,1241.00
2023-03-30T08:46:32.614Z,1274.00
2023-03-30T08:47:32.534Z,1351.00
2023-03-30T08:48:32.549Z,1418.00
2023-03-30T08:49:32.516Z,1447.00
2023-03-30T08:50:32.544Z,1412.00
2023-03-30T08:51:32.524Z,1378.00
2023-03-30T08:52:32.523Z,1418.00
2023-03-30T08:53:32.573Z,1392.00
2023-03-30T08:54:32.613Z,1373.00
2023-03-30T08:55:32.714Z,1382.00
2023-03-30T08:56:32.720Z,1361.00
2023-03-30T08:57:32.796Z,1362.00
2023-03-30T08:58:32.716Z,1341.00
2023-03-30T08:59:32.702Z,1345.00
2023-03-30T09:00:32.751Z,1333.00
2023-03-30T09:01:32.711Z,839.00
2023-03-30T09:02:32.706Z,600.00
2023-03-30T09:03:32.678Z,599.00
2023-03-30T09:04:32.738Z,554.00
2023-03-30T09:05:32.845Z,596.00
2023-03-30T09:06:32.657Z,579.00
2023-03-30T09:07:32.653Z,580.00
2023-03-30T09:08:32.666Z,516.00
2023-03-30T09:09:32.670Z,553.00
2023-03-30T09:10:32.727Z,519.00
2023-03-30T09:11:32.724Z,612.00
2023-03-30T09:12:32.783Z,567.00
2023-03-30T09:13:32.666Z,606.00
2023-03-30T09:14:32.665Z,613.00
2023-03-30T09:15:32.657Z,701.00
2023-03-30T09:16:32.773Z,597.00
2023-03-30T09:17:32.745Z,486.00
2023-03-30T09:18:32.652Z,526.00
2023-03-30T09:19:32.645Z,564.00
2023-03-30T09:20:32.671Z,606.00
2023-03-30T09:21:32.649Z,623.00
2023-03-30T09:22:32.695Z,660.00
2023-03-30T09:23:32.673Z,701.00
2023-03-30T09:24:32.757Z,616.00
2023-03-30T09:25:32.705Z,589.00
2023-03-30T09:26:32.647Z,600.00
2023-03-30T09:27:32.650Z,524.00
2023-03-30T09:28:32.684Z,610.00
2023-03-30T09:29:32.839Z,608.00
2023-03-30T09:30:32.641Z,583.00
2023-03-30T09:31:32.706Z,624.00
2023-03-30T09:32:32.780Z,568.00
2023-03-30T09:33:32.693Z,579.00
2023-03-30T09:34:32.687Z,646.00
2023-03-30T09:35:32.638Z,598.00
2023-03-30T09:36:32.644Z,647.00
2023-03-30T09:37:32.660Z,581.00
2023-03-30T09:38:32.733Z,619.00
2023-03-30T09:39:33.803Z,638.00
2023-03-30T09:40:32.668Z,638.00
2023-03-30T09:41:32.692Z,649.00
2023-03-30T09:42:32.667Z,666.00
2023-03-30T09:43:32.652Z,774.00
2023-03-30T09:44:32.655Z,928.00
2023-03-30T09:45:33.420Z,1008.00
2023-03-30T09:46:32.805Z,1036.00
2023-03-30T09:47:32.650Z,1136.00
2023-03-30T09:48:32.644Z,1158.00
2023-03-30T09:49:32.647Z,1215.00
2023-03-30T09:50:32.631Z,1255.00
2023-03-30T09:51:32.635Z,1263.00
2023-03-30T09:52:32.622Z,1268.00
2023-03-30T09:53:32.615Z,1321.00
2023-03-30T09:54:32.667Z,1266.00
2023-03-30T09:55:32.726Z,1336.00
2023-03-30T09:56:32.768Z,1326.00
2023-03-30T09:57:32.925Z,1381.00
2023-03-30T09:58:32.873Z,1403.00
2023-03-30T09:59:32.936Z,1435.00
2023-03-30T10:00:32.976Z,1391.00
2023-03-30T10:01:33.049Z,1354.00
2023-03-30T10:02:33.178Z,1391.00
2023-03-30T10:03:33.152Z,1414.00
2023-03-30T10:04:33.146Z,1433.00
2023-03-30T10:05:33.207Z,1432.00
2023-03-30T10:06:33.241Z,1429.00
2023-03-30T10:07:33.287Z,1451.00
2023-03-30T10:08:33.467Z,1462.00
2023-03-30T10:09:33.374Z,1455.00
2023-03-30T10:10:33.463Z,1432.00
2023-03-30T10:11:33.591Z,1272.00
2023-03-30T10:12:33.557Z,1108.00
2023-03-30T10:13:33.605Z,1094.00
2023-03-30T10:14:33.651Z,980.00
2023-03-30T10:15:33.742Z,820.00
2023-03-30T10:16:33.939Z,926.00
2023-03-30T10:17:33.883Z,768.00
2023-03-30T10:18:33.936Z,829.00
2023-03-30T10:19:36.176Z,1098.00
2023-03-30T10:20:33.950Z,1162.00
2023-03-30T10:21:33.926Z,1149.00
2023-03-30T10:22:33.900Z,1193.00
2023-03-30T10:23:33.896Z,1220.00
2023-03-30T10:24:33.972Z,1256.00
2023-03-30T10:25:33.918Z,1304.00
2023-03-30T10:26:33.887Z,1330.00
2023-03-30T10:27:33.909Z,1369.00
2023-03-30T10:28:33.902Z,1403.00
2023-03-30T10:29:33.866Z,1412.00
2023-03-30T10:30:33.847Z,1436.00
2023-03-30T10:31:33.895Z,1448.00
2023-03-30T10:32:33.910Z,1466.00
2023-03-30T10:33:33.833Z,1478.00
2023-03-30T10:34:33.850Z,1498.00
2023-03-30T10:35:33.878Z,711.00
2023-03-30T10:36:33.866Z,683.00
2023-03-30T10:37:33.858Z,1076.00
2023-03-30T10:38:33.827Z,1032.00
2023-03-30T10:39:33.836Z,619.00
2023-03-30T10:40:33.819Z,504.00
2023-03-30T10:41:33.887Z,502.00
2023-03-30T10:42:33.820Z,417.00
2023-03-30T10:43:33.858Z,558.00
2023-03-30T10:44:33.843Z,592.00
2023-03-30T10:45:33.809Z,657.00
2023-03-30T10:46:33.912Z,637.00
2023-03-30T10:47:33.855Z,476.00
2023-03-30T10:48:33.826Z,581.00
2023-03-30T10:49:33.818Z,582.00
2023-03-30T10:50:33.804Z,585.00
2023-03-30T10:51:33.834Z,581.00
2023-03-30T10:52:33.816Z,585.00
2023-03-30T10:53:33.818Z,612.00
2023-03-30T10:54:33.814Z,636.00
2023-03-30T10:55:33.831Z,840.00
2023-03-30T10:56:33.799Z,1047.00
2023-03-30T10:57:33.845Z,1119.00
2023-03-30T10:58:33.785Z,1149.00
2023-03-30T10:59:33.793Z,1054.00
2023-03-30T11:00:33.801Z,983.00
2023-03-30T11:01:33.861Z,950.00
2023-03-30T11:02:33.893Z,963.00
2023-03-30T11:03:34.034Z,986.00
2023-03-30T11:04:34.058Z,956.00
2023-03-30T11:05:34.010Z,1081.00
2023-03-30T11:06:34.041Z,1148.00
2023-03-30T11:07:34.148Z,1121.00
2023-03-30T11:08:34.125Z,905.00
2023-03-30T11:09:34.180Z,925.00
2023-03-30T11:10:34.245Z,906.00
2023-03-30T11:11:34.276Z,944.00
2023-03-30T11:12:34.312Z,1020.00
2023-03-30T11:13:34.365Z,1043.00
2023-03-30T11:14:34.399Z,990.00
2023-03-30T11:15:34.431Z,986.00
2023-03-30T11:16:34.474Z,899.00
2023-03-30T11:17:34.493Z,892.00
2023-03-30T11:18:34.509Z,937.00
2023-03-30T11:19:34.393Z,932.00
2023-03-30T11:20:34.462Z,904.00
2023-03-30T11:21:34.385Z,986.00
2023-03-30T11:22:34.410Z,988.00
2023-03-30T11:23:34.473Z,1001.00
2023-03-30T11:24:34.354Z,1028.00
2023-03-30T11:25:34.326Z,959.00
2023-03-30T11:26:34.340Z,950.00
2023-03-30T11:27:34.490Z,832.00
2023-03-30T11:28:34.348Z,954.00
2023-03-30T11:29:34.309Z,1078.00
2023-03-30T11:30:34.291Z,1081.00
2023-03-30T11:31:34.289Z,1094.00
2023-03-30T11:32:34.324Z,1135.00
2023-03-30T11:33:34.245Z,1234.00
2023-03-30T11:34:34.221Z,1343.00
2023-03-30T11:35:34.246Z,1410.00
2023-03-30T11:36:34.191Z,1403.00
2023-03-30T11:37:34.199Z,1500.00
2023-03-30T11:38:34.160Z,1502.00
2023-03-30T11:39:34.144Z,1507.00
2023-03-30T11:40:34.117Z,1525.00
2023-03-30T11:41:34.120Z,1570.00
2023-03-30T11:42:34.097Z,1669.00
2023-03-30T11:43:34.094Z,1696.00
2023-03-30T11:44:34.069Z,1691.00
2023-03-30T11:45:34.068Z,1720.00
2023-03-30T11:46:34.085Z,1759.00
2023-03-30T11:47:34.033Z,1755.00
2023-03-30T11:48:34.000Z,2375.00
2023-03-30T11:49:34.001Z,1967.00
2023-03-30T11:50:34.011Z,1875.00
2023-03-30T11:51:33.983Z,1864.00
2023-03-30T11:52:33.961Z,1849.00
2023-03-30T11:53:33.992Z,1857.00
2023-03-30T11:54:34.017Z,1866.00
2023-03-30T11:55:34.063Z,1860.00
2023-03-30T11:56:34.060Z,1853.00
2023-03-30T11:57:34.090Z,1894.00
2023-03-30T11:58:34.133Z,1954.00
2023-03-30T11:59:34.171Z,1986.00
2023-03-30T12:00:34.205Z,2004.00
2023-03-30T12:01:34.229Z,2021.00
2023-03-30T12:02:34.387Z,2181.00
2023-03-30T12:03:34.575Z,2167.00
2023-03-30T12:04:35.344Z,2169.00
2023-03-30T12:05:34.352Z,2170.00
2023-03-30T12:06:34.363Z,2177.00
2023-03-30T12:07:34.407Z,2201.00
2023-03-30T12:08:34.312Z,2231.00
2023-03-30T12:09:34.310Z,2309.00
2023-03-30T12:10:34.281Z,2310.00
2023-03-30T12:11:34.252Z,2308.00
2023-03-30T12:12:34.264Z,2363.00
2023-03-30T12:13:44.546Z,2385.00
2023-03-30T12:14:35.225Z,2386.00
2023-03-30T12:15:34.227Z,2386.00
2023-03-30T12:16:34.263Z,2359.00
2023-03-30T12:17:34.206Z,2347.00
2023-03-30T12:18:34.165Z,2365.00
2023-03-30T12:19:39.736Z,2386.00
2023-03-30T12:20:35.156Z,2386.00
2023-03-30T12:21:34.136Z,2383.00
2023-03-30T12:22:34.121Z,2378.00